Terminal Aerodrome Forecast
Issued by NWS Birmingham, AL

Home | Current Version | Previous Version | Text Only | Print | Product List | Glossary On
Versions: 1 2 3 4 5 6 7 8 9 10 11 12 13 14 15
000
FTUS44 KBMX 292332
TAFBHM
TAF
KBHM 292332Z 3000/3024 15011G21KT P6SM SCT050 SCT250
     FM300100 14011KT P6SM SCT060 BKN250
     FM300600 14012KT P6SM OVC025 WS019/17047KT
     FM301200 15012G23KT P6SM OVC015
     FM301700 16017G29KT P6SM BKN050=

USA.gov is the U.S. government's official web portal to all federal, state and local government web resources and services.